Capitol Logistics 2154

Operating for AJT



SMJP
Johan Adolf Pengel International Airport
Zandery, SR
KMIA
Miami International Airport
Miami, US

Activity Log

Date Flight Route Aircraft Duration
05/27/2022 CPX2154 DCT GEKOS UG449 ANADA L452 HAGIT Y308 MADIZ VIICE2 B763 5h 08m
09/26/2021 CPX2154 PERRY UG449 ANADA L452 HARBG HAGIT FODED MADIZ VIICE1 B752 6h 29m

Route Details

Aircraft Information
Group: Boeing Common
Types: B752,B762,B763
Route Data
Demand: D
Distance: 1891nm
Duration: 4h 04m
Recm'd Route: PERRY UG449 ANADA L452 HARBG HAGIT FODED MADIZ VIICE1
Origin Wx: SMJP 272200Z 03007KT 9999 FEW012 FEW015CB 27/23 Q1011 NOSIG
Dest. Wx: KMIA 272153Z 15008G19KT 10SM FEW035 SCT100 SCT200 BKN250 29/22 A2996 RMK AO2 LTG DSNT NW SLP146 CB DSNT NW MOV NE T02890222 $
Notes:

Financial History
Total Freight: 18,249lbs
Average Load: 9,125lbs/flt
Fuel Used: 73,477lbs
Avg. Fuel Used: 36,739lbs/flt
Fuel Expense: $42,219
Avg. Fuel Expense: $21,109
Avg. Fuel Cost: $0.56/lbs
Total Gross Income: $52,650
Pilot Pay: $408
Total Expenses: $20,260
Total Revenue: $-12,106
Average Revenue: $26,324.87